createdAt,value
2023-04-19T00:02:40.986Z,21.67
2023-04-19T00:08:45.806Z,24.27
2023-04-19T00:14:50.808Z,23.05
2023-04-19T00:20:54.204Z,25.60
2023-04-19T00:26:59.068Z,22.90
2023-04-19T00:33:03.859Z,24.17
2023-04-19T00:39:07.767Z,21.58
2023-04-19T00:45:11.868Z,22.80
2023-04-19T00:51:17.302Z,23.15
2023-04-19T00:57:20.690Z,23.23
2023-04-19T01:03:24.651Z,23.60
2023-04-19T01:09:29.823Z,22.20
2023-04-19T01:15:33.231Z,21.67
2023-04-19T01:21:39.512Z,22.85
2023-04-19T01:27:44.422Z,25.17
2023-04-19T01:33:47.813Z,23.15
2023-04-19T01:39:51.217Z,26.17
2023-04-19T01:45:56.174Z,21.42
2023-04-19T01:51:59.648Z,23.77
2023-04-19T01:58:03.083Z,25.08
2023-04-19T02:04:08.968Z,24.60
2023-04-19T02:10:12.737Z,23.92
2023-04-19T02:16:17.190Z,22.38
2023-04-19T02:22:22.086Z,25.00
2023-04-19T02:28:25.732Z,25.20
2023-04-19T02:34:29.677Z,24.83
2023-04-19T02:40:34.615Z,25.92
2023-04-19T02:46:38.054Z,24.08
2023-04-19T02:52:41.492Z,22.13
2023-04-19T02:58:46.242Z,24.85
2023-04-19T03:04:49.906Z,23.92
2023-04-19T03:10:53.499Z,22.75
2023-04-19T03:16:58.264Z,24.90
2023-04-19T03:23:02.941Z,23.70
2023-04-19T03:29:06.357Z,25.65
2023-04-19T03:35:11.558Z,25.23
2023-04-19T03:41:20.133Z,25.35
2023-04-19T03:47:23.750Z,23.98
2023-04-19T03:53:28.628Z,26.35
2023-04-19T03:59:32.032Z,24.35
2023-04-19T04:05:35.776Z,24.92
2023-04-19T04:11:40.543Z,26.10
2023-04-19T04:17:43.962Z,27.80
2023-04-19T04:23:47.488Z,26.30
2023-04-19T04:29:52.784Z,23.63
2023-04-19T04:35:57.864Z,26.58
2023-04-19T04:42:01.288Z,26.40
2023-04-19T04:48:06.605Z,29.08
2023-04-19T04:54:10.040Z,29.25
2023-04-19T05:00:14.207Z,35.90
2023-04-19T05:06:19.180Z,30.75
2023-04-19T05:12:24.455Z,31.55
2023-04-19T05:18:27.921Z,33.95
2023-04-19T05:24:32.734Z,39.70
2023-04-19T05:30:36.178Z,35.22
2023-04-19T05:36:39.886Z,35.40
2023-04-19T05:42:44.835Z,33.60
2023-04-19T05:48:48.310Z,32.83
2023-04-19T05:54:51.993Z,33.53
2023-04-19T06:00:56.845Z,30.02
2023-04-19T06:07:00.240Z,31.48
2023-04-19T06:13:03.702Z,28.58
2023-04-19T06:19:09.368Z,32.05
2023-04-19T06:25:12.792Z,27.98
2023-04-19T06:31:17.969Z,30.48
2023-04-19T06:37:22.808Z,34.17
2023-04-19T06:43:26.214Z,39.60
2023-04-19T06:49:29.642Z,38.13
2023-04-19T06:55:34.529Z,32.88
2023-04-19T07:01:37.979Z,30.65
2023-04-19T07:07:41.944Z,27.10
2023-04-19T07:13:46.695Z,23.00
2023-04-19T07:19:50.181Z,23.73
2023-04-19T07:25:53.854Z,19.17
2023-04-19T07:32:01.440Z,20.02
2023-04-19T07:38:04.872Z,19.50
2023-04-19T07:44:08.293Z,17.27
2023-04-19T07:50:13.601Z,17.90
2023-04-19T07:56:16.994Z,15.65
2023-04-19T08:02:20.606Z,15.57
2023-04-19T08:08:26.006Z,17.40
2023-04-19T08:14:40.031Z,16.42
2023-04-19T08:20:48.001Z,12.45
2023-04-19T08:26:54.757Z,14.20
2023-04-19T08:32:58.207Z,17.33
2023-04-19T08:39:05.731Z,10.90
2023-04-19T08:45:27.587Z,13.27
2023-04-19T08:51:33.738Z,11.25
2023-04-19T08:57:37.683Z,14.50
2023-04-19T09:03:55.990Z,11.95
2023-04-19T09:10:08.880Z,10.90
2023-04-19T09:16:25.136Z,12.23
2023-04-19T09:22:30.031Z,12.43
2023-04-19T09:28:33.572Z,12.32
2023-04-19T09:34:37.027Z,14.32
2023-04-19T09:40:42.637Z,17.48
2023-04-19T09:46:51.000Z,15.68
2023-04-19T09:52:57.098Z,19.27
2023-04-19T09:59:12.952Z,12.45
2023-04-19T10:05:24.294Z,12.95
2023-04-19T10:11:30.494Z,12.10
2023-04-19T10:17:36.003Z,12.85
2023-04-19T10:23:39.647Z,11.95
2023-04-19T10:29:59.284Z,10.45
2023-04-19T10:36:04.303Z,12.15
2023-04-19T10:42:07.826Z,10.23
2023-04-19T10:48:33.620Z,12.57
2023-04-19T10:54:40.497Z,10.98
2023-04-19T11:00:43.902Z,10.15
2023-04-19T11:07:02.805Z,10.85
2023-04-19T11:13:07.736Z,11.18
2023-04-19T11:19:11.236Z,9.27
2023-04-19T11:25:16.641Z,9.82
2023-04-19T11:31:22.689Z,9.93
2023-04-19T11:37:26.120Z,13.88
2023-04-19T11:43:34.581Z,12.63
2023-04-19T11:49:39.432Z,10.88
2023-04-19T11:55:44.451Z,15.55
2023-04-19T12:01:47.938Z,10.82
2023-04-19T12:08:05.542Z,11.90
2023-04-19T12:14:12.021Z,14.70
2023-04-19T12:20:15.447Z,13.75
2023-04-19T12:26:20.423Z,12.55
2023-04-19T12:32:24.113Z,16.65
2023-04-19T12:38:27.878Z,14.65
2023-04-19T12:44:32.650Z,13.80
2023-04-19T12:50:36.215Z,15.75
2023-04-19T12:56:39.749Z,16.90
2023-04-19T13:02:44.662Z,14.15
2023-04-19T13:08:48.264Z,13.85
2023-04-19T13:14:52.595Z,12.38
2023-04-19T13:20:57.611Z,12.05
2023-04-19T13:27:02.163Z,11.15
2023-04-19T13:33:08.743Z,9.90
2023-04-19T13:39:13.696Z,10.68
2023-04-19T13:45:17.066Z,8.80
2023-04-19T13:51:20.751Z,9.32
2023-04-19T13:57:25.555Z,9.55
2023-04-19T14:03:29.183Z,10.60
2023-04-19T14:09:32.758Z,8.32
2023-04-19T14:15:37.490Z,8.68
2023-04-19T14:21:41.206Z,8.52
2023-04-19T14:27:44.714Z,6.88
2023-04-19T14:33:49.457Z,8.82
2023-04-19T14:39:53.085Z,7.43
2023-04-19T14:45:56.620Z,7.57
2023-04-19T14:52:01.517Z,8.50
2023-04-19T14:58:04.885Z,6.63
2023-04-19T15:04:09.064Z,5.20
2023-04-19T15:10:14.105Z,7.07
2023-04-19T15:16:17.723Z,5.63
2023-04-19T15:22:21.144Z,4.75
2023-04-19T15:28:26.325Z,6.80
2023-04-19T15:34:29.803Z,7.55
2023-04-19T15:40:33.173Z,7.15
2023-04-19T15:46:38.105Z,4.32
2023-04-19T15:52:41.646Z,6.35
2023-04-19T15:58:45.257Z,5.20
2023-04-19T16:04:50.588Z,5.25
2023-04-19T16:10:54.148Z,4.63
2023-04-19T16:16:57.996Z,8.35
2023-04-19T16:23:03.572Z,8.70
2023-04-19T16:29:07.165Z,5.03
2023-04-19T16:35:11.204Z,6.07
2023-04-19T16:41:16.344Z,6.00
2023-04-19T16:47:19.843Z,4.18
2023-04-19T16:53:23.436Z,4.03
2023-04-19T16:59:28.287Z,4.95
2023-04-19T17:05:31.783Z,3.50
2023-04-19T17:11:35.562Z,4.47
2023-04-19T17:17:40.489Z,3.97
2023-04-19T17:23:43.981Z,3.85
2023-04-19T17:29:47.444Z,4.05
2023-04-19T17:35:52.393Z,4.63
2023-04-19T17:41:55.996Z,5.57
2023-04-19T17:47:59.522Z,4.68
2023-04-19T17:54:04.353Z,4.50
2023-04-19T18:00:10.648Z,7.78
2023-04-19T18:06:15.153Z,7.32
2023-04-19T18:12:20.025Z,4.22
2023-04-19T18:18:23.424Z,3.65
2023-04-19T18:24:26.809Z,5.13
2023-04-19T18:30:31.851Z,5.93
2023-04-19T18:36:35.362Z,5.95
2023-04-19T18:42:38.903Z,7.60
2023-04-19T18:48:44.345Z,6.07
2023-04-19T18:54:47.928Z,5.63
2023-04-19T19:00:52.110Z,6.90
2023-04-19T19:07:01.729Z,4.60
2023-04-19T19:13:12.205Z,4.80
2023-04-19T19:19:16.639Z,4.07
2023-04-19T19:25:21.787Z,4.10
2023-04-19T19:31:25.203Z,3.95
2023-04-19T19:37:30.104Z,6.32
2023-04-19T19:43:35.396Z,6.32
2023-04-19T19:55:45.158Z,4.53
2023-04-19T20:01:50.005Z,5.45
2023-04-19T20:08:01.825Z,4.20
2023-04-19T20:14:06.342Z,5.75
2023-04-19T20:20:12.089Z,6.22
2023-04-19T20:26:15.522Z,5.97
2023-04-19T20:32:19.011Z,5.95
2023-04-19T20:38:24.457Z,5.43
2023-04-19T20:44:27.927Z,6.88
2023-04-19T20:50:31.322Z,8.07
2023-04-19T20:56:36.078Z,4.95
2023-04-19T21:02:39.611Z,5.43
2023-04-19T21:08:43.086Z,6.00
2023-04-19T21:14:49.491Z,8.32
2023-04-19T21:20:53.133Z,7.07
2023-04-19T21:26:57.763Z,7.18
2023-04-19T21:33:02.588Z,6.68
2023-04-19T21:39:06.203Z,6.80
2023-04-19T21:45:10.117Z,6.38
2023-04-19T21:51:15.025Z,7.65
2023-04-19T21:57:22.040Z,6.53
2023-04-19T22:03:25.999Z,7.05
2023-04-19T22:09:30.906Z,6.50
2023-04-19T22:15:35.002Z,6.47
2023-04-19T22:21:38.565Z,5.68
2023-04-19T22:27:43.820Z,6.85
2023-04-19T22:33:47.301Z,6.78
2023-04-19T22:39:50.850Z,7.32
2023-04-19T22:45:55.887Z,5.88
2023-04-19T22:51:59.714Z,5.38
2023-04-19T22:58:04.998Z,8.13
2023-04-19T23:04:09.756Z,6.20
2023-04-19T23:10:13.693Z,6.18
2023-04-19T23:16:18.315Z,7.70
2023-04-19T23:22:23.185Z,6.20
2023-04-19T23:28:26.822Z,6.65
2023-04-19T23:34:30.343Z,6.45
2023-04-19T23:40:35.147Z,8.10
2023-04-19T23:46:38.645Z,7.15
2023-04-19T23:52:42.233Z,7.25
2023-04-19T23:58:47.188Z,5.60
